createdAt,value
2018-09-17T00:00:14.540Z,1.40
2018-09-17T00:02:52.890Z,1.10
2018-09-17T00:05:28.438Z,1.47
2018-09-17T00:08:02.594Z,1.50
2018-09-17T00:10:38.136Z,1.60
2018-09-17T00:13:17.881Z,1.70
2018-09-17T00:15:53.644Z,1.60
2018-09-17T00:18:28.781Z,1.70
2018-09-17T00:21:03.791Z,1.90
2018-09-17T00:23:37.901Z,1.63
2018-09-17T00:26:12.405Z,1.40
2018-09-17T00:28:48.054Z,1.80
2018-09-17T00:31:26.356Z,1.80
2018-09-17T00:36:48.300Z,1.90
2018-09-17T00:39:23.904Z,1.80
2018-09-17T00:41:58.598Z,2.27
2018-09-17T00:44:32.566Z,2.10
2018-09-17T00:47:06.565Z,1.90
2018-09-17T00:49:41.964Z,2.00
2018-09-17T00:52:17.663Z,2.07
2018-09-17T00:54:51.498Z,1.93
2018-09-17T00:57:25.765Z,2.17
2018-09-17T01:00:00.641Z,1.90
2018-09-17T01:02:35.991Z,1.90
2018-09-17T01:05:12.338Z,1.80
2018-09-17T01:07:49.349Z,1.80
2018-09-17T01:10:26.017Z,1.73
2018-09-17T01:13:00.626Z,2.00
2018-09-17T01:15:46.233Z,2.40
2018-09-17T01:18:20.756Z,2.00
2018-09-17T01:20:58.073Z,2.20
2018-09-17T01:23:33.220Z,1.50
2018-09-17T01:26:07.502Z,1.60
2018-09-17T01:28:52.038Z,2.10
2018-09-17T01:31:26.448Z,1.80
2018-09-17T01:36:47.252Z,1.87
2018-09-17T01:39:21.733Z,1.67
2018-09-17T01:42:01.119Z,1.77
2018-09-17T01:44:35.563Z,2.13
2018-09-17T01:47:10.008Z,1.97
2018-09-17T01:49:44.713Z,2.10
2018-09-17T01:52:19.599Z,1.70
2018-09-17T01:54:55.620Z,1.70
2018-09-17T01:57:29.905Z,2.37
2018-09-17T02:00:05.602Z,1.77
2018-09-17T02:02:40.913Z,1.60
2018-09-17T02:05:17.276Z,1.60
2018-09-17T02:07:53.541Z,2.20
2018-09-17T02:10:41.295Z,1.70
2018-09-17T02:13:17.015Z,1.83
2018-09-17T02:15:52.155Z,1.50
2018-09-17T02:18:27.189Z,1.60
2018-09-17T02:21:08.535Z,1.53
2018-09-17T02:26:30.863Z,1.60
2018-09-17T02:31:58.007Z,1.37
2018-09-17T02:37:28.002Z,1.60
2018-09-17T02:40:04.264Z,1.23
2018-09-17T02:43:14.686Z,1.50
2018-09-17T02:45:49.822Z,1.30
2018-09-17T02:48:36.240Z,1.40
2018-09-17T02:51:11.889Z,1.43
2018-09-17T02:54:34.624Z,2.37
2018-09-17T02:57:09.238Z,1.47
2018-09-17T02:59:44.985Z,1.30
2018-09-17T03:02:19.500Z,1.40
2018-09-17T03:04:53.917Z,0.80
2018-09-17T03:07:29.041Z,1.30
2018-09-17T03:10:03.011Z,1.20
2018-09-17T03:12:37.269Z,1.17
2018-09-17T03:15:17.201Z,1.20
2018-09-17T03:17:51.260Z,1.03
2018-09-17T03:20:25.601Z,1.57
2018-09-17T03:23:05.216Z,1.47
2018-09-17T03:25:40.248Z,1.37
2018-09-17T03:28:29.610Z,1.40
2018-09-17T03:31:04.440Z,1.33
2018-09-17T03:33:39.816Z,1.60
2018-09-17T03:41:53.541Z,1.47
2018-09-17T03:44:28.788Z,1.50
2018-09-17T03:50:06.072Z,1.70
2018-09-17T03:55:45.614Z,1.80
2018-09-17T03:58:20.241Z,1.40
2018-09-17T04:12:49.642Z,1.43
2018-09-17T04:15:26.786Z,1.70
2018-09-17T04:20:48.118Z,5.10
2018-09-17T04:23:38.240Z,1.70
2018-09-17T04:26:14.256Z,1.33
2018-09-17T04:28:48.898Z,1.33
2018-09-17T04:31:23.536Z,1.40
2018-09-17T04:33:58.151Z,1.40
2018-09-17T04:36:32.442Z,2.07
2018-09-17T04:39:07.607Z,1.30
2018-09-17T04:41:41.830Z,1.23
2018-09-17T04:44:16.589Z,1.50
2018-09-17T04:46:51.029Z,1.77
2018-09-17T04:49:25.903Z,1.30
2018-09-17T04:51:59.926Z,1.50
2018-09-17T04:54:34.751Z,1.53
2018-09-17T04:57:10.231Z,1.40
2018-09-17T04:59:45.035Z,1.50
2018-09-17T05:02:19.252Z,1.67
2018-09-17T05:04:54.247Z,1.60
2018-09-17T05:07:29.032Z,1.60
2018-09-17T05:10:03.080Z,1.50
2018-09-17T05:12:37.221Z,1.63
2018-09-17T05:15:11.071Z,1.80
2018-09-17T05:17:45.692Z,1.63
2018-09-17T05:20:23.966Z,1.60
2018-09-17T05:22:58.296Z,1.40
2018-09-17T05:25:40.046Z,1.67
2018-09-17T05:28:14.301Z,1.80
2018-09-17T05:30:48.469Z,1.50
2018-09-17T05:33:22.557Z,1.30
2018-09-17T05:35:58.311Z,1.30
2018-09-17T05:38:32.345Z,1.63
2018-09-17T05:41:07.171Z,1.67
2018-09-17T05:43:41.552Z,1.40
2018-09-17T05:46:16.492Z,1.50
2018-09-17T05:48:50.422Z,1.30
2018-09-17T05:51:24.294Z,1.63
2018-09-17T05:53:58.314Z,1.50
2018-09-17T05:56:33.036Z,1.40
2018-09-17T05:59:07.094Z,1.50
2018-09-17T06:01:41.858Z,1.40
2018-09-17T06:04:15.745Z,1.40
2018-09-17T06:06:49.900Z,1.70
2018-09-17T06:09:23.903Z,1.20
2018-09-17T06:11:57.951Z,1.20
2018-09-17T06:14:32.292Z,1.47
2018-09-17T06:17:07.017Z,1.30
2018-09-17T06:19:41.178Z,1.57
2018-09-17T06:22:16.294Z,1.60
2018-09-17T06:24:50.936Z,1.67
2018-09-17T06:27:24.814Z,1.47
2018-09-17T06:29:59.508Z,1.57
2018-09-17T06:32:33.543Z,1.60
2018-09-17T06:35:07.500Z,1.90
2018-09-17T06:37:41.518Z,1.70
2018-09-17T06:40:15.897Z,1.70
2018-09-17T06:42:50.033Z,1.70
2018-09-17T06:45:24.835Z,1.60
2018-09-17T06:47:58.895Z,1.93
2018-09-17T06:50:36.013Z,1.40
2018-09-17T06:53:10.640Z,1.60
2018-09-17T06:55:45.612Z,1.73
2018-09-17T06:58:19.746Z,1.80
2018-09-17T07:00:55.576Z,1.90
2018-09-17T07:03:31.310Z,1.83
2018-09-17T07:06:06.176Z,1.97
2018-09-17T07:08:40.051Z,1.53
2018-09-17T07:11:14.150Z,2.20
2018-09-17T07:13:48.382Z,1.67
2018-09-17T07:16:22.491Z,2.33
2018-09-17T07:18:56.454Z,1.90
2018-09-17T07:21:31.098Z,2.10
2018-09-17T07:24:05.334Z,1.97
2018-09-17T07:26:40.422Z,1.77
2018-09-17T07:29:14.358Z,1.83
2018-09-17T07:31:48.222Z,2.20
2018-09-17T07:34:23.073Z,2.30
2018-09-17T07:36:57.069Z,2.07
2018-09-17T07:39:31.968Z,2.37
2018-09-17T07:42:06.122Z,2.07
2018-09-17T07:44:40.212Z,1.77
2018-09-17T07:47:14.095Z,2.50
2018-09-17T07:49:48.683Z,1.53
2018-09-17T07:52:22.646Z,1.93
2018-09-17T07:54:56.646Z,1.80
2018-09-17T07:57:31.112Z,2.37
2018-09-17T08:00:05.731Z,2.47
2018-09-17T08:02:40.423Z,1.77
2018-09-17T08:05:15.309Z,2.60
2018-09-17T08:07:50.006Z,1.60
2018-09-17T08:10:25.215Z,1.87
2018-09-17T08:12:59.358Z,2.13
2018-09-17T08:15:33.390Z,2.30
2018-09-17T08:18:07.402Z,2.23
2018-09-17T08:20:41.583Z,2.30
2018-09-17T08:23:15.625Z,1.80
2018-09-17T08:25:49.842Z,2.47
2018-09-17T08:28:24.636Z,2.60
2018-09-17T08:30:58.792Z,1.97
2018-09-17T08:33:33.074Z,1.77
2018-09-17T08:36:07.639Z,1.40
2018-09-17T08:38:41.500Z,1.90
2018-09-17T08:41:16.574Z,1.90
2018-09-17T08:43:51.060Z,2.20
2018-09-17T08:46:25.564Z,2.30
2018-09-17T08:48:59.646Z,1.97
2018-09-17T08:51:33.627Z,2.00
2018-09-17T08:54:08.361Z,2.00
2018-09-17T08:56:48.264Z,2.23
2018-09-17T08:59:27.666Z,2.30
2018-09-17T09:02:06.874Z,2.40
2018-09-17T09:04:46.411Z,2.07
2018-09-17T09:07:25.936Z,2.40
2018-09-17T09:10:05.080Z,2.03
2018-09-17T09:12:39.194Z,2.17
2018-09-17T09:15:18.807Z,2.30
2018-09-17T09:17:52.842Z,1.87
2018-09-17T09:20:27.340Z,1.70
2018-09-17T09:23:01.965Z,1.97
2018-09-17T09:25:36.076Z,2.03
2018-09-17T09:28:09.763Z,2.17
2018-09-17T09:30:44.380Z,1.57
2018-09-17T09:33:18.727Z,2.00
2018-09-17T09:35:52.673Z,1.97
2018-09-17T09:38:26.730Z,1.30
2018-09-17T09:41:00.684Z,1.80
2018-09-17T09:43:34.791Z,1.73
2018-09-17T09:46:09.483Z,2.23
2018-09-17T09:48:44.146Z,2.07
2018-09-17T09:51:18.431Z,1.30
2018-09-17T09:53:52.385Z,1.30
2018-09-17T09:56:27.101Z,1.87
2018-09-17T09:59:01.001Z,1.47
2018-09-17T10:01:40.254Z,2.03
2018-09-17T10:04:22.435Z,1.73
2018-09-17T10:06:56.419Z,2.20
2018-09-17T10:09:36.700Z,1.37
2018-09-17T10:12:16.101Z,1.40
2018-09-17T10:14:56.344Z,1.67
2018-09-17T10:17:35.892Z,1.20
2018-09-17T10:20:09.923Z,1.50
2018-09-17T10:22:44.011Z,1.23
2018-09-17T10:25:17.963Z,1.20
2018-09-17T10:27:51.922Z,1.20
2018-09-17T10:30:26.415Z,1.43
2018-09-17T10:33:00.439Z,1.33
2018-09-17T10:35:34.410Z,2.30
2018-09-17T10:38:08.533Z,1.57
2018-09-17T10:40:42.669Z,1.50
2018-09-17T10:43:16.775Z,1.57
2018-09-17T10:45:51.845Z,1.43
2018-09-17T10:48:26.665Z,0.90
2018-09-17T10:51:02.165Z,1.00
2018-09-17T10:53:37.008Z,1.20
2018-09-17T10:56:11.045Z,1.00
2018-09-17T10:58:44.912Z,1.13
2018-09-17T11:01:18.733Z,1.10
2018-09-17T11:03:53.597Z,1.67
2018-09-17T11:06:27.471Z,1.17
2018-09-17T11:09:01.711Z,1.00
2018-09-17T11:11:35.681Z,0.70
2018-09-17T11:14:09.956Z,0.87
2018-09-17T11:16:44.481Z,0.97
2018-09-17T11:19:18.921Z,0.80
2018-09-17T11:21:53.416Z,0.70
2018-09-17T11:24:28.498Z,1.07
2018-09-17T11:27:03.269Z,0.60
2018-09-17T11:29:37.210Z,0.60
2018-09-17T11:32:11.279Z,0.70
2018-09-17T11:34:46.938Z,0.83
2018-09-17T11:37:20.946Z,0.60
2018-09-17T11:39:55.037Z,1.40
2018-09-17T11:42:28.979Z,0.70
2018-09-17T11:45:02.798Z,0.80
2018-09-17T11:47:37.406Z,1.00
2018-09-17T11:50:11.282Z,1.10
2018-09-17T11:52:45.429Z,0.77
2018-09-17T11:55:19.442Z,0.93
2018-09-17T11:57:53.583Z,0.60
2018-09-17T12:00:33.035Z,0.97
2018-09-17T12:03:13.166Z,1.17
2018-09-17T12:05:52.862Z,0.83
2018-09-17T12:08:26.775Z,1.07
2018-09-17T12:11:01.082Z,0.80
2018-09-17T12:13:35.122Z,0.83
2018-09-17T12:16:09.246Z,1.10
2018-09-17T12:18:43.302Z,0.97
2018-09-17T12:21:18.050Z,0.70
2018-09-17T12:23:52.151Z,0.93
2018-09-17T12:26:26.255Z,1.33
2018-09-17T12:29:00.094Z,1.00
2018-09-17T12:31:34.530Z,1.00
2018-09-17T12:34:09.190Z,0.67
2018-09-17T12:36:43.249Z,0.60
2018-09-17T12:39:18.179Z,0.70
2018-09-17T12:41:53.252Z,0.70
2018-09-17T12:44:27.362Z,0.57
2018-09-17T12:47:01.997Z,0.57
2018-09-17T12:49:36.494Z,0.70
2018-09-17T12:52:11.304Z,0.80
2018-09-17T12:54:45.337Z,0.40
2018-09-17T12:57:19.331Z,0.90
2018-09-17T12:59:53.962Z,0.60
2018-09-17T13:02:27.908Z,0.10
2018-09-17T13:05:01.897Z,0.73
2018-09-17T13:07:36.228Z,1.00
2018-09-17T13:10:11.743Z,1.10
2018-09-17T13:12:45.686Z,0.90
2018-09-17T13:15:20.768Z,0.70
2018-09-17T13:17:55.500Z,0.60
2018-09-17T13:20:29.492Z,0.90
2018-09-17T13:23:03.280Z,0.77
2018-09-17T13:25:37.874Z,1.00
2018-09-17T13:28:11.756Z,0.90
2018-09-17T13:30:47.663Z,0.70
2018-09-17T13:33:21.530Z,0.63
2018-09-17T13:35:55.699Z,0.73
2018-09-17T13:38:29.881Z,0.83
2018-09-17T13:41:04.207Z,0.40
2018-09-17T13:43:38.294Z,0.70
2018-09-17T13:46:12.594Z,0.83
2018-09-17T13:48:46.518Z,0.43
2018-09-17T13:51:20.681Z,0.93
2018-09-17T13:53:54.683Z,0.87
2018-09-17T13:56:28.507Z,0.50
2018-09-17T13:59:02.491Z,0.40
2018-09-17T14:01:36.516Z,0.97
2018-09-17T14:04:10.435Z,0.80
2018-09-17T14:06:44.746Z,0.73
2018-09-17T14:09:18.754Z,0.60
2018-09-17T14:11:53.397Z,0.60
2018-09-17T14:14:27.909Z,0.50
2018-09-17T14:17:01.881Z,0.70
2018-09-17T14:19:36.545Z,0.80
2018-09-17T14:22:11.344Z,0.60
2018-09-17T14:24:45.168Z,0.70
2018-09-17T14:27:19.878Z,0.70
2018-09-17T14:29:54.101Z,0.80
2018-09-17T14:32:33.562Z,1.87
2018-09-17T14:35:08.106Z,0.60
2018-09-17T14:37:42.515Z,0.50
2018-09-17T14:40:16.283Z,0.80
2018-09-17T14:42:50.955Z,0.50
2018-09-17T14:45:25.010Z,0.53
2018-09-17T14:47:58.839Z,0.27
2018-09-17T14:50:32.862Z,0.50
2018-09-17T14:53:06.644Z,0.50
2018-09-17T14:55:40.800Z,0.63
2018-09-17T14:58:14.832Z,0.80
2018-09-17T15:00:49.089Z,0.23
2018-09-17T15:03:23.709Z,0.37
2018-09-17T15:05:58.433Z,1.30
2018-09-17T15:08:33.274Z,1.07
2018-09-17T15:11:07.235Z,0.87
2018-09-17T15:13:42.361Z,1.00
2018-09-17T15:16:16.582Z,1.17
2018-09-17T15:18:50.632Z,0.60
2018-09-17T15:21:24.692Z,0.70
2018-09-17T15:23:58.492Z,0.60
2018-09-17T15:26:33.247Z,0.80
2018-09-17T15:29:07.205Z,0.60
2018-09-17T15:31:41.170Z,0.73
2018-09-17T15:34:15.787Z,0.70
2018-09-17T15:36:49.899Z,0.60
2018-09-17T15:39:24.085Z,0.37
2018-09-17T15:41:58.005Z,0.60
2018-09-17T15:44:32.015Z,0.70
2018-09-17T15:47:05.870Z,0.47
2018-09-17T15:49:39.890Z,0.90
2018-09-17T15:52:13.878Z,0.80
2018-09-17T15:54:48.245Z,0.77
2018-09-17T15:57:22.401Z,0.40
2018-09-17T15:59:56.416Z,0.40
2018-09-17T16:02:30.876Z,0.53
2018-09-17T16:05:04.921Z,0.77
2018-09-17T16:07:38.917Z,0.43
2018-09-17T16:10:13.364Z,0.70
2018-09-17T16:12:48.459Z,0.57
2018-09-17T16:15:22.505Z,0.20
2018-09-17T16:17:57.064Z,0.23
2018-09-17T16:20:31.065Z,0.50
2018-09-17T16:23:05.135Z,0.60
2018-09-17T16:25:39.589Z,0.50
2018-09-17T16:28:13.607Z,0.20
2018-09-17T16:30:47.580Z,0.60
2018-09-17T16:33:21.454Z,0.50
2018-09-17T16:35:55.845Z,0.53
2018-09-17T16:38:29.921Z,0.40
2018-09-17T16:41:04.868Z,0.43
2018-09-17T16:43:39.836Z,0.20
2018-09-17T16:46:13.924Z,0.43
2018-09-17T16:48:48.151Z,0.40
2018-09-17T16:51:22.536Z,0.00
2018-09-17T16:53:56.798Z,0.00
2018-09-17T16:56:30.621Z,0.10
2018-09-17T16:59:04.626Z,0.30
2018-09-17T17:01:39.201Z,0.40
2018-09-17T17:04:14.277Z,0.40
2018-09-17T17:06:48.241Z,0.53
2018-09-17T17:09:22.309Z,0.20
2018-09-17T17:11:56.363Z,0.50
2018-09-17T17:14:30.230Z,0.47
2018-09-17T17:17:04.441Z,0.70
2018-09-17T17:19:38.307Z,0.13
2018-09-17T17:22:12.571Z,0.40
2018-09-17T17:24:46.326Z,0.00
2018-09-17T17:27:20.936Z,0.20
2018-09-17T17:29:55.173Z,0.70
2018-09-17T17:32:29.286Z,0.20
2018-09-17T17:35:04.209Z,0.50
2018-09-17T17:37:38.180Z,0.40
2018-09-17T17:40:12.214Z,0.40
2018-09-17T17:42:45.995Z,0.40
2018-09-17T17:45:20.067Z,0.10
2018-09-17T17:47:53.845Z,0.30
2018-09-17T17:50:27.871Z,0.27
2018-09-17T17:53:01.933Z,0.43
2018-09-17T17:55:36.174Z,0.47
2018-09-17T17:58:10.287Z,0.30
2018-09-17T18:00:44.092Z,0.10
2018-09-17T18:03:18.189Z,0.20
2018-09-17T18:05:52.263Z,0.30
2018-09-17T18:08:27.212Z,0.70
2018-09-17T18:11:01.177Z,0.30
2018-09-17T18:13:35.349Z,0.57
2018-09-17T18:16:10.234Z,0.30
2018-09-17T18:18:44.090Z,0.27
2018-09-17T18:21:18.091Z,0.10
2018-09-17T18:23:52.388Z,0.50
2018-09-17T18:26:26.932Z,0.60
2018-09-17T18:29:01.070Z,0.60
2018-09-17T18:31:35.242Z,0.50
2018-09-17T18:34:09.341Z,0.60
2018-09-17T18:36:43.549Z,0.70
2018-09-17T18:39:17.598Z,0.57
2018-09-17T18:41:51.638Z,1.00
2018-09-17T18:44:25.585Z,0.77
2018-09-17T18:47:00.402Z,0.67
2018-09-17T18:49:34.623Z,0.60
2018-09-17T18:52:08.529Z,0.50
2018-09-17T18:54:43.773Z,0.63
2018-09-17T18:57:18.169Z,0.50
2018-09-17T18:59:52.335Z,1.40
2018-09-17T19:02:26.318Z,0.60
2018-09-17T19:05:01.977Z,0.60
2018-09-17T19:07:36.684Z,0.70
2018-09-17T19:10:10.843Z,0.70
2018-09-17T19:12:44.938Z,0.60
2018-09-17T19:15:24.513Z,0.50
2018-09-17T19:18:07.072Z,0.50
2018-09-17T19:20:41.429Z,0.90
2018-09-17T19:23:20.856Z,0.80
2018-09-17T19:25:58.155Z,0.50
2018-09-17T19:28:37.550Z,0.50
2018-09-17T19:31:11.689Z,0.40
2018-09-17T19:33:48.170Z,0.77
2018-09-17T19:36:22.553Z,0.80
2018-09-17T19:39:02.015Z,0.80
2018-09-17T19:41:36.083Z,0.53
2018-09-17T19:44:10.390Z,0.50
2018-09-17T19:46:44.397Z,0.50
2018-09-17T19:49:18.381Z,0.50
2018-09-17T19:51:58.328Z,0.67
2018-09-17T19:54:32.840Z,0.67
2018-09-17T19:57:11.698Z,0.60
2018-09-17T19:59:52.424Z,0.67
2018-09-17T20:02:26.361Z,0.50
2018-09-17T20:05:05.756Z,0.67
2018-09-17T20:07:42.098Z,0.67
2018-09-17T20:10:16.602Z,0.80
2018-09-17T20:12:50.617Z,0.83
2018-09-17T20:15:25.070Z,0.70
2018-09-17T20:17:59.633Z,0.70
2018-09-17T20:20:33.887Z,0.67
2018-09-17T20:23:08.395Z,0.60
2018-09-17T20:25:44.215Z,0.70
2018-09-17T20:28:18.470Z,1.00
2018-09-17T20:30:53.737Z,1.10
2018-09-17T20:33:31.458Z,1.17
2018-09-17T20:36:15.188Z,0.70
2018-09-17T20:38:49.222Z,0.93
2018-09-17T20:41:24.780Z,1.03
2018-09-17T20:47:09.917Z,0.80
2018-09-17T20:49:44.672Z,1.00
2018-09-17T20:52:18.982Z,1.20
2018-09-17T20:54:56.565Z,0.93
2018-09-17T20:57:31.064Z,1.07
2018-09-17T21:00:08.268Z,1.07
2018-09-17T21:02:46.073Z,1.20
2018-09-17T21:05:21.316Z,1.07
2018-09-17T21:07:55.779Z,1.10
2018-09-17T21:10:37.719Z,1.03
2018-09-17T21:13:12.175Z,0.80
2018-09-17T21:15:46.578Z,1.10
2018-09-17T21:18:23.950Z,1.20
2018-09-17T21:20:58.228Z,1.33
2018-09-17T21:23:33.788Z,1.20
2018-09-17T21:26:08.154Z,1.50
2018-09-17T21:28:46.487Z,1.23
2018-09-17T21:31:20.865Z,1.00
2018-09-17T21:33:55.448Z,1.37
2018-09-17T21:36:29.614Z,1.50
2018-09-17T21:39:06.211Z,1.20
2018-09-17T21:41:40.809Z,1.20
2018-09-17T21:44:14.835Z,1.40
2018-09-17T21:46:49.143Z,0.90
2018-09-17T21:49:23.210Z,1.30
2018-09-17T21:51:58.091Z,1.37
2018-09-17T21:54:33.666Z,1.10
2018-09-17T21:57:07.847Z,1.57
2018-09-17T21:59:42.527Z,1.30
2018-09-17T22:02:16.360Z,1.30
2018-09-17T22:04:50.719Z,1.40
2018-09-17T22:07:25.373Z,1.20
2018-09-17T22:09:59.737Z,1.37
2018-09-17T22:12:33.705Z,1.53
2018-09-17T22:15:07.990Z,1.23
2018-09-17T22:17:42.477Z,1.20
2018-09-17T22:20:16.466Z,1.37
2018-09-17T22:22:52.366Z,1.40
2018-09-17T22:28:06.144Z,1.63
2018-09-17T22:30:42.678Z,1.70
2018-09-17T22:33:16.888Z,1.63
2018-09-17T22:35:50.879Z,1.30
2018-09-17T22:38:24.948Z,1.47
2018-09-17T22:40:59.751Z,1.30
2018-09-17T22:43:34.378Z,1.17
2018-09-17T22:46:08.465Z,1.20
2018-09-17T22:48:42.602Z,1.10
2018-09-17T22:51:24.264Z,1.20
2018-09-17T22:53:58.236Z,1.20
2018-09-17T22:56:32.573Z,1.30
2018-09-17T22:59:06.814Z,1.53
2018-09-17T23:01:42.409Z,1.40
2018-09-17T23:04:17.022Z,1.40
2018-09-17T23:06:51.921Z,1.30
2018-09-17T23:09:30.044Z,1.50
2018-09-17T23:12:04.241Z,1.30
2018-09-17T23:17:31.731Z,1.47
2018-09-17T23:22:59.292Z,1.40
2018-09-17T23:25:36.789Z,1.27
2018-09-17T23:28:19.396Z,1.10
2018-09-17T23:33:45.737Z,1.63
2018-09-17T23:36:24.249Z,1.67
2018-09-17T23:38:59.209Z,1.60
2018-09-17T23:41:38.926Z,1.20
2018-09-17T23:44:13.189Z,1.10
2018-09-17T23:46:47.868Z,1.67
2018-09-17T23:49:22.498Z,2.07
2018-09-17T23:51:56.574Z,1.47
2018-09-17T23:54:31.441Z,1.60
2018-09-17T23:57:13.851Z,1.50
2018-09-17T23:59:48.474Z,1.60
